createdAt,value
2023-05-16T00:00:31.480Z,3143.00
2023-05-16T00:01:31.509Z,3147.00
2023-05-16T00:02:31.592Z,3156.00
2023-05-16T00:03:31.585Z,3146.00
2023-05-16T00:04:31.538Z,3139.00
2023-05-16T00:05:31.521Z,3167.00
2023-05-16T00:06:31.504Z,3182.00
2023-05-16T00:07:31.520Z,3192.00
2023-05-16T00:08:31.519Z,3152.00
2023-05-16T00:09:31.517Z,3163.00
2023-05-16T00:10:31.527Z,3157.00
2023-05-16T00:11:31.573Z,3148.00
2023-05-16T00:12:31.589Z,3165.00
2023-05-16T00:13:31.580Z,3155.00
2023-05-16T00:14:31.597Z,3160.00
2023-05-16T00:15:31.613Z,3140.00
2023-05-16T00:16:31.635Z,3150.00
2023-05-16T00:17:31.639Z,3142.00
2023-05-16T00:18:31.669Z,3162.00
2023-05-16T00:19:31.626Z,3172.00
2023-05-16T00:20:31.633Z,3172.00
2023-05-16T00:21:31.644Z,3146.00
2023-05-16T00:22:31.630Z,3143.00
2023-05-16T00:23:31.641Z,3162.00
2023-05-16T00:24:31.639Z,3151.00
2023-05-16T00:25:31.671Z,3144.00
2023-05-16T00:26:31.654Z,3137.00
2023-05-16T00:27:31.664Z,3147.00
2023-05-16T00:28:31.685Z,3124.00
2023-05-16T00:29:31.682Z,3132.00
2023-05-16T00:30:31.688Z,3133.00
2023-05-16T00:31:31.735Z,3127.00
2023-05-16T00:32:31.714Z,3121.00
2023-05-16T00:33:31.730Z,3129.00
2023-05-16T00:34:31.810Z,3143.00
2023-05-16T00:35:31.744Z,3120.00
2023-05-16T00:36:31.757Z,3154.00
2023-05-16T00:37:31.748Z,3173.00
2023-05-16T00:38:31.764Z,3159.00
2023-05-16T00:39:31.796Z,3162.00
2023-05-16T00:40:31.814Z,3191.00
2023-05-16T00:41:31.802Z,3172.00
2023-05-16T00:42:31.790Z,3204.00
2023-05-16T00:43:31.808Z,3200.00
2023-05-16T00:44:31.828Z,3215.00
2023-05-16T00:45:31.845Z,3218.00
2023-05-16T00:46:31.925Z,3220.00
2023-05-16T00:47:31.895Z,3210.00
2023-05-16T00:48:31.867Z,3196.00
2023-05-16T00:49:31.880Z,3199.00
2023-05-16T00:50:31.891Z,3183.00
2023-05-16T00:51:31.925Z,3175.00
2023-05-16T00:52:31.905Z,3182.00
2023-05-16T00:53:31.933Z,3202.00
2023-05-16T00:54:31.941Z,3178.00
2023-05-16T00:55:31.942Z,3179.00
2023-05-16T00:56:31.975Z,3188.00
2023-05-16T00:57:31.976Z,3179.00
2023-05-16T00:58:31.975Z,3190.00
2023-05-16T00:59:31.984Z,3174.00
2023-05-16T01:00:31.999Z,3164.00
2023-05-16T01:01:32.000Z,3159.00
2023-05-16T01:02:32.116Z,3165.00
2023-05-16T01:03:32.178Z,3162.00
2023-05-16T01:04:31.999Z,3152.00
2023-05-16T01:05:32.027Z,3130.00
2023-05-16T01:06:32.010Z,3120.00
2023-05-16T01:07:32.023Z,3112.00
2023-05-16T01:08:32.044Z,3100.00
2023-05-16T01:09:32.068Z,3108.00
2023-05-16T01:10:32.074Z,3113.00
2023-05-16T01:11:32.068Z,3120.00
2023-05-16T01:12:32.073Z,3126.00
2023-05-16T01:13:32.076Z,3131.00
2023-05-16T01:14:32.102Z,3122.00
2023-05-16T01:15:32.133Z,3080.00
2023-05-16T01:16:32.221Z,3076.00
2023-05-16T01:17:32.144Z,3042.00
2023-05-16T01:18:32.162Z,3031.00
2023-05-16T01:19:32.194Z,3022.00
2023-05-16T01:20:32.167Z,3015.00
2023-05-16T01:21:32.174Z,3021.00
2023-05-16T01:22:32.195Z,3019.00
2023-05-16T01:23:32.206Z,3030.00
2023-05-16T01:24:32.201Z,2983.00
2023-05-16T01:25:32.204Z,2991.00
2023-05-16T01:26:32.232Z,2998.00
2023-05-16T01:27:32.237Z,2962.00
2023-05-16T01:28:32.253Z,2978.00
2023-05-16T01:29:32.243Z,2964.00
2023-05-16T01:30:32.259Z,2948.00
2023-05-16T01:31:32.365Z,2951.00
2023-05-16T01:32:32.326Z,2932.00
2023-05-16T01:33:32.317Z,2950.00
2023-05-16T01:34:32.325Z,2959.00
2023-05-16T01:35:32.315Z,2998.00
2023-05-16T01:36:32.340Z,3028.00
2023-05-16T01:37:32.345Z,3038.00
2023-05-16T01:38:32.360Z,3046.00
2023-05-16T01:39:32.357Z,3050.00
2023-05-16T01:40:32.409Z,3063.00
2023-05-16T01:41:32.392Z,3055.00
2023-05-16T01:42:32.404Z,3066.00
2023-05-16T01:43:32.426Z,3073.00
2023-05-16T01:44:32.436Z,3062.00
2023-05-16T01:45:32.475Z,3067.00
2023-05-16T01:46:32.521Z,3080.00
2023-05-16T01:47:32.508Z,3071.00
2023-05-16T01:48:32.487Z,3077.00
2023-05-16T01:49:32.512Z,3072.00
2023-05-16T01:50:32.521Z,3079.00
2023-05-16T01:51:32.521Z,3089.00
2023-05-16T01:52:32.552Z,3074.00
2023-05-16T01:53:32.538Z,3069.00
2023-05-16T01:54:32.547Z,3078.00
2023-05-16T01:55:32.575Z,3085.00
2023-05-16T01:56:32.579Z,3085.00
2023-05-16T01:57:32.597Z,3086.00
2023-05-16T01:58:32.610Z,3090.00
2023-05-16T01:59:32.610Z,3076.00
2023-05-16T02:00:32.618Z,3080.00
2023-05-16T02:01:32.763Z,3087.00
2023-05-16T02:02:32.712Z,3075.00
2023-05-16T02:03:32.716Z,3070.00
2023-05-16T02:04:33.224Z,3086.00
2023-05-16T02:05:32.714Z,3091.00
2023-05-16T02:06:32.723Z,3084.00
2023-05-16T02:07:32.732Z,3080.00
2023-05-16T02:08:32.742Z,3079.00
2023-05-16T02:09:32.766Z,3094.00
2023-05-16T02:10:32.800Z,3107.00
2023-05-16T02:11:32.812Z,3112.00
2023-05-16T02:12:32.819Z,3102.00
2023-05-16T02:13:32.828Z,3094.00
2023-05-16T02:14:32.844Z,3113.00
2023-05-16T02:15:32.857Z,3099.00
2023-05-16T02:16:32.945Z,3084.00
2023-05-16T02:17:32.940Z,3088.00
2023-05-16T02:18:32.912Z,3098.00
2023-05-16T02:19:32.925Z,3062.00
2023-05-16T02:20:32.966Z,3051.00
2023-05-16T02:21:32.980Z,3034.00
2023-05-16T02:22:32.968Z,3016.00
2023-05-16T02:23:33.037Z,3001.00
2023-05-16T02:24:33.026Z,3001.00
2023-05-16T02:25:33.024Z,3002.00
2023-05-16T02:26:33.081Z,3005.00
2023-05-16T02:27:33.078Z,3013.00
2023-05-16T02:28:33.095Z,3011.00
2023-05-16T02:29:33.097Z,3020.00
2023-05-16T02:30:33.136Z,2994.00
2023-05-16T02:31:33.160Z,3010.00
2023-05-16T02:32:33.260Z,3011.00
2023-05-16T02:33:33.187Z,3001.00
2023-05-16T02:34:33.186Z,3007.00
2023-05-16T02:35:33.229Z,3037.00
2023-05-16T02:36:33.237Z,3036.00
2023-05-16T02:37:33.241Z,3046.00
2023-05-16T02:38:33.253Z,3047.00
2023-05-16T02:39:33.290Z,3055.00
2023-05-16T02:40:33.286Z,3068.00
2023-05-16T02:41:33.303Z,3077.00
2023-05-16T02:42:33.324Z,3069.00
2023-05-16T02:43:33.352Z,3060.00
2023-05-16T02:44:33.392Z,3071.00
2023-05-16T02:45:33.369Z,3043.00
2023-05-16T02:46:33.499Z,3046.00
2023-05-16T02:47:33.427Z,3025.00
2023-05-16T02:48:33.431Z,3025.00
2023-05-16T02:49:33.442Z,3019.00
2023-05-16T02:50:33.460Z,3025.00
2023-05-16T02:51:33.474Z,3027.00
2023-05-16T02:52:33.486Z,3014.00
2023-05-16T02:53:33.516Z,3013.00
2023-05-16T02:54:33.552Z,3010.00
2023-05-16T02:55:33.527Z,3015.00
2023-05-16T02:56:33.559Z,2997.00
2023-05-16T02:57:33.587Z,2965.00
2023-05-16T02:58:33.579Z,2985.00
2023-05-16T02:59:33.602Z,2985.00
2023-05-16T03:00:33.610Z,2978.00
2023-05-16T03:01:33.678Z,2967.00
2023-05-16T03:02:33.772Z,2947.00
2023-05-16T03:03:33.801Z,2928.00
2023-05-16T03:04:33.661Z,2918.00
2023-05-16T03:05:33.683Z,2876.00
2023-05-16T03:06:33.714Z,2870.00
2023-05-16T03:07:33.711Z,2892.00
2023-05-16T03:08:33.747Z,2882.00
2023-05-16T03:09:33.751Z,2873.00
2023-05-16T03:10:33.795Z,2861.00
2023-05-16T03:11:34.223Z,2882.00
2023-05-16T03:12:33.808Z,2876.00
2023-05-16T03:13:33.830Z,2877.00
2023-05-16T03:14:33.821Z,2921.00
2023-05-16T03:15:33.866Z,2928.00
2023-05-16T03:16:33.956Z,2965.00
2023-05-16T03:17:33.928Z,2973.00
2023-05-16T03:18:33.929Z,2996.00
2023-05-16T03:19:33.899Z,2992.00
2023-05-16T03:20:33.917Z,3009.00
2023-05-16T03:21:33.933Z,3002.00
2023-05-16T03:22:33.965Z,2979.00
2023-05-16T03:23:34.003Z,2977.00
2023-05-16T03:24:34.771Z,2961.00
2023-05-16T03:25:34.036Z,2952.00
2023-05-16T03:26:34.106Z,2937.00
2023-05-16T03:27:34.141Z,2939.00
2023-05-16T03:28:34.215Z,2956.00
2023-05-16T03:29:34.276Z,2966.00
2023-05-16T03:30:34.369Z,2980.00
2023-05-16T03:31:34.446Z,2976.00
2023-05-16T03:32:34.425Z,2983.00
2023-05-16T03:33:34.463Z,2985.00
2023-05-16T03:34:34.468Z,2998.00
2023-05-16T03:35:34.486Z,2985.00
2023-05-16T03:36:34.511Z,2983.00
2023-05-16T03:37:34.521Z,3003.00
2023-05-16T03:38:34.532Z,2997.00
2023-05-16T03:39:34.535Z,3011.00
2023-05-16T03:40:34.560Z,3017.00
2023-05-16T03:41:34.591Z,3007.00
2023-05-16T03:42:34.606Z,3005.00
2023-05-16T03:43:34.615Z,3018.00
2023-05-16T03:44:34.620Z,3027.00
2023-05-16T03:45:34.668Z,3031.00
2023-05-16T03:46:34.714Z,3029.00
2023-05-16T03:47:34.735Z,3027.00
2023-05-16T03:48:34.733Z,3036.00
2023-05-16T03:49:34.714Z,3016.00
2023-05-16T03:50:34.761Z,3006.00
2023-05-16T03:51:34.752Z,3013.00
2023-05-16T03:52:34.779Z,3003.00
2023-05-16T03:53:34.781Z,2986.00
2023-05-16T03:54:34.823Z,2980.00
2023-05-16T03:55:34.824Z,2973.00
2023-05-16T03:56:34.850Z,2984.00
2023-05-16T03:57:34.875Z,2998.00
2023-05-16T03:58:34.900Z,2989.00
2023-05-16T03:59:34.926Z,3004.00
2023-05-16T04:00:34.936Z,3011.00
2023-05-16T04:01:35.015Z,2990.00
2023-05-16T04:02:35.056Z,2981.00
2023-05-16T04:03:35.048Z,2975.00
2023-05-16T04:04:35.017Z,2971.00
2023-05-16T04:05:35.069Z,2968.00
2023-05-16T04:06:35.074Z,2973.00
2023-05-16T04:07:35.118Z,2983.00
2023-05-16T04:08:35.112Z,2961.00
2023-05-16T04:09:35.117Z,2940.00
2023-05-16T04:10:35.153Z,2905.00
2023-05-16T04:11:35.142Z,2889.00
2023-05-16T04:12:35.173Z,2865.00
2023-05-16T04:13:35.235Z,2833.00
2023-05-16T04:14:35.247Z,2836.00
2023-05-16T04:15:35.303Z,2864.00
2023-05-16T04:16:35.330Z,2883.00
2023-05-16T04:17:35.469Z,2882.00
2023-05-16T04:18:35.485Z,2925.00
2023-05-16T04:19:35.471Z,2946.00
2023-05-16T04:20:35.529Z,2945.00
2023-05-16T04:21:35.579Z,2951.00
2023-05-16T04:22:35.663Z,2965.00
2023-05-16T04:23:35.695Z,2937.00
2023-05-16T04:24:35.752Z,2939.00
2023-05-16T04:25:35.829Z,2938.00
2023-05-16T04:26:35.823Z,2952.00
2023-05-16T04:27:35.831Z,2948.00
2023-05-16T04:28:35.858Z,2947.00
2023-05-16T04:29:35.884Z,2951.00
2023-05-16T04:30:35.912Z,2938.00
2023-05-16T04:31:35.969Z,2942.00
2023-05-16T04:32:35.979Z,2952.00
2023-05-16T04:33:35.962Z,2961.00
2023-05-16T04:34:37.969Z,2982.00
2023-05-16T04:35:35.983Z,2999.00
2023-05-16T04:36:35.978Z,2987.00
2023-05-16T04:37:35.983Z,2990.00
2023-05-16T04:38:35.983Z,3010.00
2023-05-16T04:39:35.973Z,2997.00
2023-05-16T04:40:35.991Z,3000.00
2023-05-16T04:41:35.944Z,2993.00
2023-05-16T04:42:35.936Z,2987.00
2023-05-16T04:43:35.950Z,2995.00
2023-05-16T04:44:35.939Z,2977.00
2023-05-16T04:45:37.587Z,2975.00
2023-05-16T04:46:35.973Z,2977.00
2023-05-16T04:47:35.924Z,2997.00
2023-05-16T04:48:35.927Z,2979.00
2023-05-16T04:49:35.904Z,2965.00
2023-05-16T04:50:35.942Z,2958.00
2023-05-16T04:51:35.883Z,2971.00
2023-05-16T04:52:35.879Z,2957.00
2023-05-16T04:53:35.866Z,2964.00
2023-05-16T04:54:35.881Z,2956.00
2023-05-16T04:55:35.861Z,2946.00
2023-05-16T04:56:35.851Z,2931.00
2023-05-16T04:57:35.860Z,2930.00
2023-05-16T04:58:35.839Z,2933.00
2023-05-16T04:59:35.822Z,2927.00
2023-05-16T05:00:35.817Z,2920.00
2023-05-16T05:01:35.880Z,2910.00
2023-05-16T05:02:35.886Z,2899.00
2023-05-16T05:03:35.876Z,2899.00
2023-05-16T05:04:35.980Z,2886.00
2023-05-16T05:05:35.975Z,2894.00
2023-05-16T05:06:35.949Z,2898.00
2023-05-16T05:07:35.977Z,2908.00
2023-05-16T05:08:35.986Z,2905.00
2023-05-16T05:09:35.994Z,2920.00
2023-05-16T05:10:36.043Z,2913.00
2023-05-16T05:11:36.036Z,2933.00
2023-05-16T05:12:36.088Z,2935.00
2023-05-16T05:13:36.093Z,2945.00
2023-05-16T05:14:36.125Z,2926.00
2023-05-16T05:15:36.134Z,2941.00
2023-05-16T05:16:36.168Z,2956.00
2023-05-16T05:17:36.255Z,2955.00
2023-05-16T05:18:36.264Z,2962.00
2023-05-16T05:19:36.237Z,2947.00
2023-05-16T05:20:36.218Z,2941.00
2023-05-16T05:21:36.278Z,2946.00
2023-05-16T05:22:36.314Z,2952.00
2023-05-16T05:23:36.356Z,2924.00
2023-05-16T05:24:36.427Z,2925.00
2023-05-16T05:25:37.829Z,2922.00
2023-05-16T05:26:36.450Z,2899.00
2023-05-16T05:27:36.507Z,2889.00
2023-05-16T05:28:36.546Z,2918.00
2023-05-16T05:29:36.621Z,2980.00
2023-05-16T05:30:36.607Z,2976.00
2023-05-16T05:31:36.640Z,3023.00
2023-05-16T05:32:36.616Z,3101.00
2023-05-16T05:33:36.627Z,3145.00
2023-05-16T05:34:36.644Z,3230.00
2023-05-16T05:35:36.621Z,3312.00
2023-05-16T05:36:36.776Z,3322.00
2023-05-16T05:37:36.636Z,3364.00
2023-05-16T05:38:36.649Z,3436.00
2023-05-16T05:39:36.679Z,3482.00
2023-05-16T05:40:36.795Z,3541.00
2023-05-16T05:41:36.782Z,3570.00
2023-05-16T05:42:36.819Z,3639.00
2023-05-16T05:43:36.879Z,3642.00
2023-05-16T05:44:36.904Z,3674.00
2023-05-16T05:45:37.335Z,3755.00
2023-05-16T05:46:36.961Z,3753.00
2023-05-16T05:47:36.950Z,3765.00
2023-05-16T05:48:36.927Z,3772.00
2023-05-16T05:49:36.917Z,3762.00
2023-05-16T05:50:36.956Z,3791.00
2023-05-16T05:51:36.997Z,3789.00
2023-05-16T05:52:37.054Z,3818.00
2023-05-16T05:53:37.126Z,3810.00
2023-05-16T05:54:37.222Z,3822.00
2023-05-16T05:55:37.234Z,3876.00
2023-05-16T05:56:37.289Z,3872.00
2023-05-16T05:57:37.288Z,3861.00
2023-05-16T05:58:37.333Z,3871.00
2023-05-16T05:59:37.383Z,3913.00
2023-05-16T06:00:37.485Z,3896.00
2023-05-16T06:01:37.500Z,3916.00
2023-05-16T06:02:37.762Z,3913.00
2023-05-16T06:03:37.639Z,3924.00
2023-05-16T06:04:37.588Z,3905.00
2023-05-16T06:05:37.651Z,3929.00
2023-05-16T06:06:37.688Z,3926.00
2023-05-16T06:07:37.665Z,3869.00
2023-05-16T06:08:37.710Z,3884.00
2023-05-16T06:09:37.725Z,3943.00
2023-05-16T06:10:37.933Z,3918.00
2023-05-16T06:11:37.753Z,3895.00
2023-05-16T06:12:37.780Z,3922.00
2023-05-16T06:13:37.844Z,3926.00
2023-05-16T06:14:37.818Z,3931.00
2023-05-16T06:15:37.820Z,3943.00
2023-05-16T06:16:37.881Z,3953.00
2023-05-16T06:17:37.887Z,3908.00
2023-05-16T06:18:38.020Z,3940.00
2023-05-16T06:19:37.855Z,3930.00
2023-05-16T06:20:37.901Z,3962.00
2023-05-16T06:21:37.909Z,3918.00
2023-05-16T06:22:37.915Z,3930.00
2023-05-16T06:23:37.916Z,3955.00
2023-05-16T06:24:37.924Z,3982.00
2023-05-16T06:25:37.938Z,3968.00
2023-05-16T06:26:37.943Z,3973.00
2023-05-16T06:27:37.980Z,3974.00
2023-05-16T06:28:37.977Z,3961.00
2023-05-16T06:29:37.977Z,3955.00
2023-05-16T06:30:38.297Z,3953.00
2023-05-16T06:31:38.052Z,3950.00
2023-05-16T06:32:38.044Z,3939.00
2023-05-16T06:33:38.013Z,3919.00
2023-05-16T06:34:38.033Z,3767.00
2023-05-16T06:35:38.314Z,3554.00
2023-05-16T06:36:38.336Z,3452.00
2023-05-16T06:37:38.358Z,3374.00
2023-05-16T06:38:38.114Z,3267.00
2023-05-16T06:39:38.159Z,3218.00
2023-05-16T06:40:38.326Z,3182.00
2023-05-16T06:41:38.216Z,3205.00
2023-05-16T06:42:38.776Z,3187.00
2023-05-16T06:43:38.261Z,3192.00
2023-05-16T06:44:38.309Z,3214.00
2023-05-16T06:45:38.352Z,3235.00
2023-05-16T06:46:38.450Z,3302.00
2023-05-16T06:47:38.391Z,3335.00
2023-05-16T06:48:38.416Z,3338.00
2023-05-16T06:49:38.456Z,3311.00
2023-05-16T06:50:38.859Z,3311.00
2023-05-16T06:51:38.553Z,3293.00
2023-05-16T06:52:38.588Z,3269.00
2023-05-16T06:53:38.611Z,3275.00
2023-05-16T06:54:38.662Z,3283.00
2023-05-16T06:55:38.825Z,3296.00
2023-05-16T06:56:38.744Z,3229.00
2023-05-16T06:57:38.748Z,3192.00
2023-05-16T06:58:38.766Z,3124.00
2023-05-16T06:59:38.770Z,3106.00
2023-05-16T07:00:38.878Z,3105.00
2023-05-16T07:01:38.777Z,3174.00
2023-05-16T07:02:38.874Z,3235.00
2023-05-16T07:03:38.867Z,3322.00
2023-05-16T07:04:38.809Z,3410.00
2023-05-16T07:05:38.893Z,3473.00
2023-05-16T07:06:38.928Z,3554.00
2023-05-16T07:07:38.994Z,3629.00
2023-05-16T07:08:39.049Z,3680.00
2023-05-16T07:09:39.103Z,3709.00
2023-05-16T07:10:39.328Z,3735.00
2023-05-16T07:11:39.145Z,3736.00
2023-05-16T07:12:39.376Z,3748.00
2023-05-16T07:13:39.205Z,3762.00
2023-05-16T07:14:39.252Z,3771.00
2023-05-16T07:15:39.260Z,3787.00
2023-05-16T07:16:39.316Z,3794.00
2023-05-16T07:17:39.284Z,3797.00
2023-05-16T07:18:39.359Z,3799.00
2023-05-16T07:19:39.312Z,3778.00
2023-05-16T07:20:39.333Z,3795.00
2023-05-16T07:21:39.323Z,3804.00
2023-05-16T07:22:39.326Z,3791.00
2023-05-16T07:23:39.346Z,3802.00
2023-05-16T07:24:39.384Z,3799.00
2023-05-16T07:25:39.856Z,3788.00
2023-05-16T07:26:39.395Z,3767.00
2023-05-16T07:27:39.417Z,3707.00
2023-05-16T07:28:39.426Z,3679.00
2023-05-16T07:29:39.434Z,3691.00
2023-05-16T07:30:39.878Z,3712.00
2023-05-16T07:31:39.530Z,3717.00
2023-05-16T07:32:39.531Z,3709.00
2023-05-16T07:33:39.516Z,3733.00
2023-05-16T07:34:39.514Z,3770.00
2023-05-16T07:35:39.524Z,3775.00
2023-05-16T07:36:39.543Z,3768.00
2023-05-16T07:37:39.543Z,3741.00
2023-05-16T07:38:39.564Z,3727.00
2023-05-16T07:39:39.573Z,3766.00
2023-05-16T07:40:39.854Z,3761.00
2023-05-16T07:41:39.852Z,3768.00
2023-05-16T07:42:39.627Z,3783.00
2023-05-16T07:43:39.632Z,3758.00
2023-05-16T07:44:39.627Z,3790.00
2023-05-16T07:45:39.740Z,3792.00
2023-05-16T07:46:40.022Z,3771.00
2023-05-16T07:47:39.653Z,3799.00
2023-05-16T07:48:39.649Z,3831.00
2023-05-16T07:49:39.663Z,3808.00
2023-05-16T07:50:39.655Z,3803.00
2023-05-16T07:51:39.680Z,3799.00
2023-05-16T07:52:39.670Z,3790.00
2023-05-16T07:53:39.673Z,3804.00
2023-05-16T07:54:39.669Z,3779.00
2023-05-16T07:55:39.840Z,3760.00
2023-05-16T07:56:39.658Z,3775.00
2023-05-16T07:57:39.661Z,3793.00
2023-05-16T07:58:39.667Z,3783.00
2023-05-16T07:59:39.753Z,3788.00
2023-05-16T08:00:39.757Z,3780.00
2023-05-16T08:01:39.760Z,3776.00
2023-05-16T08:02:39.889Z,3735.00
2023-05-16T08:03:39.810Z,3764.00
2023-05-16T08:04:39.746Z,3764.00
2023-05-16T08:05:39.807Z,3779.00
2023-05-16T08:06:39.738Z,3798.00
2023-05-16T08:07:39.724Z,3773.00
2023-05-16T08:08:39.757Z,3791.00
2023-05-16T08:09:39.739Z,3774.00
2023-05-16T08:10:39.747Z,3776.00
2023-05-16T08:11:39.731Z,3766.00
2023-05-16T08:12:39.720Z,3777.00
2023-05-16T08:13:39.743Z,3771.00
2023-05-16T08:14:39.775Z,3742.00
2023-05-16T08:15:39.941Z,3744.00
2023-05-16T08:16:39.974Z,3722.00
2023-05-16T08:17:39.899Z,3710.00
2023-05-16T08:18:39.945Z,3692.00
2023-05-16T08:19:39.886Z,3675.00
2023-05-16T08:20:39.917Z,3658.00
2023-05-16T08:21:39.894Z,3602.00
2023-05-16T08:22:39.906Z,3580.00
2023-05-16T08:23:39.888Z,3605.00
2023-05-16T08:24:39.906Z,3589.00
2023-05-16T08:25:39.933Z,3544.00
2023-05-16T08:26:39.917Z,3566.00
2023-05-16T08:27:39.954Z,3590.00
2023-05-16T08:28:40.054Z,3591.00
2023-05-16T08:29:40.056Z,3660.00
2023-05-16T08:30:42.648Z,3629.00
2023-05-16T08:31:40.383Z,3596.00
2023-05-16T08:32:40.122Z,3582.00
2023-05-16T08:33:40.137Z,3559.00
2023-05-16T08:34:40.108Z,3552.00
2023-05-16T08:35:40.097Z,3536.00
2023-05-16T08:36:40.361Z,3524.00
2023-05-16T08:37:40.077Z,3509.00
2023-05-16T08:38:40.055Z,3461.00
2023-05-16T08:39:40.063Z,3473.00
2023-05-16T08:40:40.096Z,3193.00
2023-05-16T08:41:40.352Z,2946.00
2023-05-16T08:42:40.022Z,2893.00
2023-05-16T08:43:40.023Z,2801.00
2023-05-16T08:44:40.017Z,2718.00
2023-05-16T08:45:39.995Z,2750.00
2023-05-16T08:46:40.068Z,2700.00
2023-05-16T08:47:40.077Z,2593.00
2023-05-16T08:48:40.003Z,2535.00
2023-05-16T08:49:40.025Z,2656.00
2023-05-16T08:50:39.980Z,2688.00
2023-05-16T08:51:39.975Z,2723.00
2023-05-16T08:52:39.979Z,2742.00
2023-05-16T08:53:39.983Z,2931.00
2023-05-16T08:54:39.962Z,2980.00
2023-05-16T08:55:39.964Z,3122.00
2023-05-16T08:56:39.951Z,3143.00
2023-05-16T08:57:39.941Z,3018.00
2023-05-16T08:58:39.926Z,3187.00
2023-05-16T08:59:39.933Z,3134.00
2023-05-16T09:00:39.983Z,3043.00
2023-05-16T09:01:40.376Z,3041.00
2023-05-16T09:02:39.944Z,2923.00
2023-05-16T09:03:39.959Z,2893.00
2023-05-16T09:04:39.893Z,2859.00
2023-05-16T09:05:39.932Z,2813.00
2023-05-16T09:06:40.485Z,2843.00
2023-05-16T09:07:39.883Z,2763.00
2023-05-16T09:08:39.878Z,2746.00
2023-05-16T09:09:39.890Z,2774.00
2023-05-16T09:10:39.873Z,2747.00
2023-05-16T09:11:39.890Z,2734.00
2023-05-16T09:12:39.849Z,2664.00
2023-05-16T09:13:39.842Z,2619.00
2023-05-16T09:14:39.829Z,2627.00
2023-05-16T09:15:39.828Z,2611.00
2023-05-16T09:16:39.884Z,2584.00
2023-05-16T09:17:41.587Z,2558.00
2023-05-16T09:18:39.864Z,2618.00
2023-05-16T09:19:39.865Z,2571.00
2023-05-16T09:20:39.805Z,2593.00
2023-05-16T09:21:39.902Z,2613.00
2023-05-16T09:22:39.870Z,2569.00
2023-05-16T09:23:39.761Z,2523.00
2023-05-16T09:24:39.759Z,2484.00
2023-05-16T09:25:39.748Z,2541.00
2023-05-16T09:26:39.878Z,2728.00
2023-05-16T09:27:39.736Z,2880.00
2023-05-16T09:28:39.746Z,2899.00
2023-05-16T09:29:39.713Z,2954.00
2023-05-16T09:30:39.726Z,2989.00
2023-05-16T09:31:39.964Z,2929.00
2023-05-16T09:32:39.748Z,3047.00
2023-05-16T09:33:39.689Z,2996.00
2023-05-16T09:34:39.727Z,2807.00
2023-05-16T09:35:45.428Z,2643.00
2023-05-16T09:36:43.511Z,2530.00
2023-05-16T09:37:39.672Z,2517.00
2023-05-16T09:38:39.692Z,2650.00
2023-05-16T09:39:39.652Z,2554.00
2023-05-16T09:40:39.653Z,2435.00
2023-05-16T09:41:39.682Z,2494.00
2023-05-16T09:42:39.650Z,2684.00
2023-05-16T09:43:41.608Z,2561.00
2023-05-16T09:44:39.620Z,2533.00
2023-05-16T09:45:39.605Z,2581.00
2023-05-16T09:46:39.652Z,2604.00
2023-05-16T09:47:39.681Z,2696.00
2023-05-16T09:48:39.581Z,2647.00
2023-05-16T09:49:39.584Z,2449.00
2023-05-16T09:50:39.598Z,2414.00
2023-05-16T09:51:39.882Z,2413.00
2023-05-16T09:52:39.583Z,2228.00
2023-05-16T09:53:39.581Z,2110.00
2023-05-16T09:54:39.574Z,2120.00
2023-05-16T09:55:39.555Z,2147.00
2023-05-16T09:56:39.560Z,2200.00
2023-05-16T09:57:39.553Z,2211.00
2023-05-16T09:58:39.537Z,2165.00
2023-05-16T09:59:39.523Z,2006.00
2023-05-16T10:00:39.506Z,1853.00
2023-05-16T10:01:39.543Z,1883.00
2023-05-16T10:02:39.525Z,2037.00
2023-05-16T10:03:39.610Z,2168.00
2023-05-16T10:04:39.483Z,2313.00
2023-05-16T10:05:39.488Z,2493.00
2023-05-16T10:06:39.501Z,2499.00
2023-05-16T10:07:39.478Z,2546.00
2023-05-16T10:08:39.464Z,2507.00
2023-05-16T10:09:39.472Z,2563.00
2023-05-16T10:10:39.604Z,2646.00
2023-05-16T10:11:39.433Z,2716.00
2023-05-16T10:12:39.443Z,2802.00
2023-05-16T10:13:39.430Z,2820.00
2023-05-16T10:14:39.418Z,2834.00
2023-05-16T10:15:39.415Z,2836.00
2023-05-16T10:16:39.485Z,2874.00
2023-05-16T10:17:39.472Z,2908.00
2023-05-16T10:18:39.429Z,3011.00
2023-05-16T10:19:39.418Z,3065.00
2023-05-16T10:20:39.378Z,3045.00
2023-05-16T10:21:39.373Z,2858.00
2023-05-16T10:22:39.383Z,2780.00
2023-05-16T10:23:39.403Z,2684.00
2023-05-16T10:24:39.910Z,2481.00
2023-05-16T10:25:39.449Z,2245.00
2023-05-16T10:26:39.432Z,2205.00
2023-05-16T10:27:39.484Z,2208.00
2023-05-16T10:28:39.518Z,2234.00
2023-05-16T10:29:52.938Z,2303.00
2023-05-16T10:30:40.534Z,2303.00
2023-05-16T10:31:39.531Z,2175.00
2023-05-16T10:32:42.507Z,2144.00
2023-05-16T10:33:39.514Z,2107.00
2023-05-16T10:34:39.507Z,2094.00
2023-05-16T10:35:39.496Z,2009.00
2023-05-16T10:36:39.499Z,1796.00
2023-05-16T10:37:39.575Z,1634.00
2023-05-16T10:38:39.485Z,1453.00
2023-05-16T10:39:39.464Z,1455.00
2023-05-16T10:40:39.449Z,1466.00
2023-05-16T10:41:39.460Z,1405.00
2023-05-16T10:42:39.455Z,1389.00
2023-05-16T10:43:39.710Z,1319.00
2023-05-16T10:44:39.876Z,1327.00
2023-05-16T10:45:39.465Z,1282.00
2023-05-16T10:46:39.665Z,1300.00
2023-05-16T10:47:39.461Z,1278.00
2023-05-16T10:48:39.457Z,1253.00
2023-05-16T10:49:39.410Z,1303.00
2023-05-16T10:50:39.412Z,1278.00
2023-05-16T10:51:39.376Z,1261.00
2023-05-16T10:52:39.380Z,1215.00
2023-05-16T10:53:39.380Z,1142.00
2023-05-16T10:54:39.373Z,1168.00
2023-05-16T10:55:39.357Z,1304.00
2023-05-16T10:56:39.449Z,1253.00
2023-05-16T10:57:39.347Z,1291.00
2023-05-16T10:58:39.348Z,1259.00
2023-05-16T10:59:39.325Z,1336.00
2023-05-16T11:00:39.342Z,1336.00
2023-05-16T11:01:39.475Z,1473.00
2023-05-16T11:02:39.409Z,1452.00
2023-05-16T11:03:39.541Z,1427.00
2023-05-16T11:04:39.300Z,1507.00
2023-05-16T11:05:39.285Z,1620.00
2023-05-16T11:06:39.399Z,1618.00
2023-05-16T11:07:39.259Z,1589.00
2023-05-16T11:08:39.249Z,1679.00
2023-05-16T11:09:39.260Z,1634.00
2023-05-16T11:10:39.259Z,1644.00
2023-05-16T11:11:39.415Z,1591.00
2023-05-16T11:12:39.239Z,1581.00
2023-05-16T11:13:39.228Z,1517.00
2023-05-16T11:14:39.277Z,1460.00
2023-05-16T11:15:39.230Z,1616.00
2023-05-16T11:16:39.449Z,1855.00
2023-05-16T11:17:41.030Z,1914.00
2023-05-16T11:18:39.220Z,1767.00
2023-05-16T11:19:39.200Z,1875.00
2023-05-16T11:20:39.185Z,1908.00
2023-05-16T11:21:39.397Z,1888.00
2023-05-16T11:22:39.177Z,1899.00
2023-05-16T11:23:39.145Z,1916.00
2023-05-16T11:24:39.169Z,1980.00
2023-05-16T11:25:39.152Z,1965.00
2023-05-16T11:26:39.406Z,1891.00
2023-05-16T11:27:39.141Z,1700.00
2023-05-16T11:28:39.124Z,1755.00
2023-05-16T11:29:39.126Z,1705.00
2023-05-16T11:30:39.126Z,1697.00
2023-05-16T11:31:39.159Z,1782.00
2023-05-16T11:32:39.149Z,1839.00
2023-05-16T11:33:39.075Z,1803.00
2023-05-16T11:34:39.072Z,1663.00
2023-05-16T11:35:39.087Z,1609.00
2023-05-16T11:36:39.061Z,1570.00
2023-05-16T11:37:39.066Z,1855.00
2023-05-16T11:38:39.056Z,1965.00
2023-05-16T11:39:39.101Z,2011.00
2023-05-16T11:40:39.041Z,1821.00
2023-05-16T11:41:39.042Z,1943.00
2023-05-16T11:42:39.025Z,1988.00
2023-05-16T11:43:39.025Z,1923.00
2023-05-16T11:44:39.003Z,2012.00
2023-05-16T11:45:39.008Z,2087.00
2023-05-16T11:46:39.130Z,2067.00
2023-05-16T11:47:39.110Z,2048.00
2023-05-16T11:48:39.085Z,2109.00
2023-05-16T11:49:38.974Z,2014.00
2023-05-16T11:50:38.986Z,1965.00
2023-05-16T11:51:38.962Z,2041.00
2023-05-16T11:52:38.982Z,1975.00
2023-05-16T11:53:38.951Z,2002.00
2023-05-16T11:54:38.953Z,2044.00
2023-05-16T11:55:42.329Z,1813.00
2023-05-16T11:56:38.940Z,1708.00
2023-05-16T11:57:38.937Z,1603.00
2023-05-16T11:58:38.927Z,1561.00
2023-05-16T11:59:38.897Z,1669.00
2023-05-16T12:00:38.887Z,1710.00
2023-05-16T12:01:38.912Z,1725.00
2023-05-16T12:02:38.944Z,1721.00
2023-05-16T12:03:38.999Z,1702.00
2023-05-16T12:04:39.120Z,1658.00
2023-05-16T12:05:38.984Z,1674.00